sensor_id;sensor_type;location;lat;lon;timestamp;P1;durP1;ratioP1;P2;durP2;ratioP2
735;SDS011;352;48.626;9.238;2023-06-14T00:00:22;7.00;;;5.57;;
735;SDS011;352;48.626;9.238;2023-06-14T00:02:50;5.60;;;5.20;;
735;SDS011;352;48.626;9.238;2023-06-14T00:05:20;6.73;;;6.13;;
735;SDS011;352;48.626;9.238;2023-06-14T00:07:48;6.63;;;6.03;;
735;SDS011;352;48.626;9.238;2023-06-14T00:10:18;5.93;;;5.43;;
735;SDS011;352;48.626;9.238;2023-06-14T00:12:45;6.20;;;5.80;;
735;SDS011;352;48.626;9.238;2023-06-14T00:15:12;6.13;;;5.67;;
735;SDS011;352;48.626;9.238;2023-06-14T00:17:39;6.67;;;5.70;;
735;SDS011;352;48.626;9.238;2023-06-14T00:20:08;6.40;;;5.90;;
735;SDS011;352;48.626;9.238;2023-06-14T00:22:35;6.63;;;5.93;;
735;SDS011;352;48.626;9.238;2023-06-14T00:25:04;8.20;;;5.63;;
735;SDS011;352;48.626;9.238;2023-06-14T00:27:31;6.33;;;5.73;;
735;SDS011;352;48.626;9.238;2023-06-14T00:29:57;6.73;;;6.13;;
735;SDS011;352;48.626;9.238;2023-06-14T00:32:24;6.13;;;5.63;;
735;SDS011;352;48.626;9.238;2023-06-14T00:34:52;7.43;;;6.10;;
735;SDS011;352;48.626;9.238;2023-06-14T00:37:21;6.83;;;5.97;;
735;SDS011;352;48.626;9.238;2023-06-14T00:39:48;6.00;;;5.50;;
735;SDS011;352;48.626;9.238;2023-06-14T00:42:22;6.17;;;5.67;;
735;SDS011;352;48.626;9.238;2023-06-14T00:44:50;7.00;;;6.37;;
735;SDS011;352;48.626;9.238;2023-06-14T00:47:17;6.17;;;5.67;;
735;SDS011;352;48.626;9.238;2023-06-14T00:49:45;6.60;;;5.97;;
735;SDS011;352;48.626;9.238;2023-06-14T00:52:12;6.13;;;5.63;;
735;SDS011;352;48.626;9.238;2023-06-14T00:54:41;6.60;;;6.10;;
735;SDS011;352;48.626;9.238;2023-06-14T00:57:08;6.60;;;6.00;;
735;SDS011;352;48.626;9.238;2023-06-14T00:59:35;6.30;;;5.70;;
735;SDS011;352;48.626;9.238;2023-06-14T01:02:07;6.03;;;5.43;;
735;SDS011;352;48.626;9.238;2023-06-14T01:04:34;6.30;;;5.70;;
735;SDS011;352;48.626;9.238;2023-06-14T01:07:02;7.03;;;6.00;;
735;SDS011;352;48.626;9.238;2023-06-14T01:09:43;5.50;;;5.07;;
735;SDS011;352;48.626;9.238;2023-06-14T01:12:17;6.77;;;6.17;;
735;SDS011;352;48.626;9.238;2023-06-14T01:14:50;6.03;;;5.53;;
735;SDS011;352;48.626;9.238;2023-06-14T01:17:19;6.53;;;6.00;;
735;SDS011;352;48.626;9.238;2023-06-14T01:19:46;6.50;;;6.00;;
735;SDS011;352;48.626;9.238;2023-06-14T01:22:13;6.60;;;5.87;;
735;SDS011;352;48.626;9.238;2023-06-14T01:24:42;6.77;;;6.23;;
735;SDS011;352;48.626;9.238;2023-06-14T01:27:10;6.97;;;6.43;;
735;SDS011;352;48.626;9.238;2023-06-14T01:29:38;7.37;;;6.70;;
735;SDS011;352;48.626;9.238;2023-06-14T01:32:10;6.10;;;5.63;;
735;SDS011;352;48.626;9.238;2023-06-14T01:34:38;7.10;;;6.40;;
735;SDS011;352;48.626;9.238;2023-06-14T01:37:05;7.17;;;6.57;;
735;SDS011;352;48.626;9.238;2023-06-14T01:39:32;7.13;;;6.47;;
735;SDS011;352;48.626;9.238;2023-06-14T01:42:01;6.57;;;5.87;;
735;SDS011;352;48.626;9.238;2023-06-14T01:44:29;6.57;;;5.97;;
735;SDS011;352;48.626;9.238;2023-06-14T01:46:56;7.23;;;6.57;;
735;SDS011;352;48.626;9.238;2023-06-14T01:49:23;7.87;;;6.30;;
735;SDS011;352;48.626;9.238;2023-06-14T01:51:50;6.90;;;6.10;;
735;SDS011;352;48.626;9.238;2023-06-14T01:54:16;6.40;;;6.00;;
735;SDS011;352;48.626;9.238;2023-06-14T01:56:43;7.63;;;6.00;;
735;SDS011;352;48.626;9.238;2023-06-14T01:59:11;7.03;;;6.53;;
735;SDS011;352;48.626;9.238;2023-06-14T02:01:38;6.83;;;6.33;;
735;SDS011;352;48.626;9.238;2023-06-14T02:04:05;6.60;;;6.10;;
735;SDS011;352;48.626;9.238;2023-06-14T02:06:32;7.17;;;6.57;;
735;SDS011;352;48.626;9.238;2023-06-14T02:09:00;6.80;;;6.03;;
735;SDS011;352;48.626;9.238;2023-06-14T02:11:27;7.20;;;5.90;;
735;SDS011;352;48.626;9.238;2023-06-14T02:13:54;6.53;;;5.90;;
735;SDS011;352;48.626;9.238;2023-06-14T02:16:22;6.73;;;6.23;;
735;SDS011;352;48.626;9.238;2023-06-14T02:18:49;7.77;;;7.07;;
735;SDS011;352;48.626;9.238;2023-06-14T02:21:16;7.60;;;6.80;;
735;SDS011;352;48.626;9.238;2023-06-14T02:23:43;7.10;;;6.50;;
735;SDS011;352;48.626;9.238;2023-06-14T02:26:10;7.60;;;6.90;;
735;SDS011;352;48.626;9.238;2023-06-14T02:28:36;6.77;;;6.10;;
735;SDS011;352;48.626;9.238;2023-06-14T02:31:03;7.43;;;6.83;;
735;SDS011;352;48.626;9.238;2023-06-14T02:33:31;6.93;;;6.33;;
735;SDS011;352;48.626;9.238;2023-06-14T02:35:58;6.70;;;6.10;;
735;SDS011;352;48.626;9.238;2023-06-14T02:38:24;7.07;;;6.47;;
735;SDS011;352;48.626;9.238;2023-06-14T02:40:51;6.87;;;6.27;;
735;SDS011;352;48.626;9.238;2023-06-14T02:43:18;7.70;;;7.10;;
735;SDS011;352;48.626;9.238;2023-06-14T02:45:45;7.57;;;6.97;;
735;SDS011;352;48.626;9.238;2023-06-14T02:48:11;6.90;;;6.30;;
735;SDS011;352;48.626;9.238;2023-06-14T02:50:39;6.73;;;6.13;;
735;SDS011;352;48.626;9.238;2023-06-14T02:53:06;7.13;;;6.53;;
735;SDS011;352;48.626;9.238;2023-06-14T02:55:33;7.07;;;6.57;;
735;SDS011;352;48.626;9.238;2023-06-14T02:58:04;7.60;;;7.00;;
735;SDS011;352;48.626;9.238;2023-06-14T03:00:30;6.83;;;6.30;;
735;SDS011;352;48.626;9.238;2023-06-14T03:02:57;7.57;;;6.90;;
735;SDS011;352;48.626;9.238;2023-06-14T03:05:26;7.50;;;6.90;;
735;SDS011;352;48.626;9.238;2023-06-14T03:07:54;7.20;;;6.60;;
735;SDS011;352;48.626;9.238;2023-06-14T03:10:22;7.57;;;6.97;;
735;SDS011;352;48.626;9.238;2023-06-14T03:12:48;6.93;;;6.43;;
735;SDS011;352;48.626;9.238;2023-06-14T03:15:16;7.20;;;6.50;;
735;SDS011;352;48.626;9.238;2023-06-14T03:17:44;7.63;;;7.03;;
735;SDS011;352;48.626;9.238;2023-06-14T03:20:10;7.53;;;6.93;;
735;SDS011;352;48.626;9.238;2023-06-14T03:22:37;7.30;;;6.70;;
735;SDS011;352;48.626;9.238;2023-06-14T03:25:06;7.77;;;6.47;;
735;SDS011;352;48.626;9.238;2023-06-14T03:27:34;7.50;;;6.77;;
735;SDS011;352;48.626;9.238;2023-06-14T03:30:01;6.87;;;6.27;;
735;SDS011;352;48.626;9.238;2023-06-14T03:32:28;6.97;;;6.47;;
735;SDS011;352;48.626;9.238;2023-06-14T03:34:58;7.10;;;6.17;;
735;SDS011;352;48.626;9.238;2023-06-14T03:37:24;7.30;;;6.30;;
735;SDS011;352;48.626;9.238;2023-06-14T03:39:51;7.67;;;7.07;;
735;SDS011;352;48.626;9.238;2023-06-14T03:42:19;6.93;;;6.27;;
735;SDS011;352;48.626;9.238;2023-06-14T03:44:46;8.97;;;7.00;;
735;SDS011;352;48.626;9.238;2023-06-14T03:47:12;7.37;;;6.73;;
735;SDS011;352;48.626;9.238;2023-06-14T03:49:40;8.83;;;8.10;;
735;SDS011;352;48.626;9.238;2023-06-14T03:52:06;7.40;;;6.80;;
735;SDS011;352;48.626;9.238;2023-06-14T03:54:33;6.70;;;6.20;;
735;SDS011;352;48.626;9.238;2023-06-14T03:57:00;7.10;;;6.50;;
735;SDS011;352;48.626;9.238;2023-06-14T03:59:28;7.03;;;6.43;;
735;SDS011;352;48.626;9.238;2023-06-14T04:01:54;6.50;;;6.03;;
735;SDS011;352;48.626;9.238;2023-06-14T04:04:21;8.37;;;7.13;;
735;SDS011;352;48.626;9.238;2023-06-14T04:06:54;7.57;;;6.77;;
735;SDS011;352;48.626;9.238;2023-06-14T04:09:21;6.97;;;6.47;;
735;SDS011;352;48.626;9.238;2023-06-14T04:11:49;7.93;;;6.50;;
735;SDS011;352;48.626;9.238;2023-06-14T04:14:16;8.10;;;7.40;;
735;SDS011;352;48.626;9.238;2023-06-14T04:16:45;7.73;;;6.93;;
735;SDS011;352;48.626;9.238;2023-06-14T04:19:12;7.27;;;6.70;;
735;SDS011;352;48.626;9.238;2023-06-14T04:21:38;7.50;;;6.83;;
735;SDS011;352;48.626;9.238;2023-06-14T04:24:05;6.57;;;6.07;;
735;SDS011;352;48.626;9.238;2023-06-14T04:26:32;7.33;;;6.63;;
735;SDS011;352;48.626;9.238;2023-06-14T04:28:59;7.03;;;6.43;;
735;SDS011;352;48.626;9.238;2023-06-14T04:31:27;7.63;;;6.93;;
735;SDS011;352;48.626;9.238;2023-06-14T04:33:55;7.40;;;6.73;;
735;SDS011;352;48.626;9.238;2023-06-14T04:36:22;7.60;;;6.90;;
735;SDS011;352;48.626;9.238;2023-06-14T04:38:50;7.67;;;6.97;;
735;SDS011;352;48.626;9.238;2023-06-14T04:41:19;6.97;;;6.27;;
735;SDS011;352;48.626;9.238;2023-06-14T04:43:47;7.20;;;6.70;;
735;SDS011;352;48.626;9.238;2023-06-14T04:46:14;7.37;;;6.77;;
735;SDS011;352;48.626;9.238;2023-06-14T04:48:42;7.70;;;7.00;;
735;SDS011;352;48.626;9.238;2023-06-14T04:51:10;7.90;;;7.07;;
735;SDS011;352;48.626;9.238;2023-06-14T04:53:38;7.63;;;7.03;;
735;SDS011;352;48.626;9.238;2023-06-14T04:56:05;7.70;;;7.10;;
735;SDS011;352;48.626;9.238;2023-06-14T04:58:32;7.60;;;7.00;;
735;SDS011;352;48.626;9.238;2023-06-14T05:00:59;7.93;;;7.30;;
735;SDS011;352;48.626;9.238;2023-06-14T05:03:27;7.33;;;6.77;;
735;SDS011;352;48.626;9.238;2023-06-14T05:05:55;9.10;;;8.30;;
735;SDS011;352;48.626;9.238;2023-06-14T05:08:23;7.77;;;7.10;;
735;SDS011;352;48.626;9.238;2023-06-14T05:10:50;8.10;;;7.30;;
735;SDS011;352;48.626;9.238;2023-06-14T05:13:18;7.57;;;6.93;;
735;SDS011;352;48.626;9.238;2023-06-14T05:15:46;7.33;;;6.73;;
735;SDS011;352;48.626;9.238;2023-06-14T05:18:14;7.37;;;6.77;;
735;SDS011;352;48.626;9.238;2023-06-14T05:20:41;7.70;;;7.10;;
735;SDS011;352;48.626;9.238;2023-06-14T05:23:08;7.37;;;6.77;;
735;SDS011;352;48.626;9.238;2023-06-14T05:25:41;8.00;;;7.30;;
735;SDS011;352;48.626;9.238;2023-06-14T05:28:09;7.63;;;7.03;;
735;SDS011;352;48.626;9.238;2023-06-14T05:30:37;8.20;;;7.60;;
735;SDS011;352;48.626;9.238;2023-06-14T05:33:04;8.00;;;7.27;;
735;SDS011;352;48.626;9.238;2023-06-14T05:35:31;7.93;;;7.23;;
735;SDS011;352;48.626;9.238;2023-06-14T05:37:57;11.97;;;7.37;;
735;SDS011;352;48.626;9.238;2023-06-14T05:40:24;7.83;;;7.10;;
735;SDS011;352;48.626;9.238;2023-06-14T05:42:52;8.37;;;7.73;;
735;SDS011;352;48.626;9.238;2023-06-14T05:45:19;8.10;;;7.43;;
735;SDS011;352;48.626;9.238;2023-06-14T05:47:45;7.10;;;6.50;;
735;SDS011;352;48.626;9.238;2023-06-14T05:50:12;6.63;;;6.13;;
735;SDS011;352;48.626;9.238;2023-06-14T05:52:39;7.57;;;6.87;;
735;SDS011;352;48.626;9.238;2023-06-14T05:55:06;12.73;;;7.03;;
735;SDS011;352;48.626;9.238;2023-06-14T05:57:33;7.07;;;6.50;;
735;SDS011;352;48.626;9.238;2023-06-14T06:00:02;7.73;;;7.00;;
735;SDS011;352;48.626;9.238;2023-06-14T06:02:34;9.60;;;7.47;;
735;SDS011;352;48.626;9.238;2023-06-14T06:05:01;7.70;;;7.07;;
735;SDS011;352;48.626;9.238;2023-06-14T06:07:28;8.20;;;7.40;;
735;SDS011;352;48.626;9.238;2023-06-14T06:09:55;7.77;;;7.07;;
735;SDS011;352;48.626;9.238;2023-06-14T06:12:21;7.63;;;7.13;;
735;SDS011;352;48.626;9.238;2023-06-14T06:14:48;7.50;;;7.00;;
735;SDS011;352;48.626;9.238;2023-06-14T06:17:16;9.80;;;7.20;;
735;SDS011;352;48.626;9.238;2023-06-14T06:19:43;7.67;;;7.07;;
735;SDS011;352;48.626;9.238;2023-06-14T06:22:10;7.77;;;7.07;;
735;SDS011;352;48.626;9.238;2023-06-14T06:24:37;8.40;;;7.57;;
735;SDS011;352;48.626;9.238;2023-06-14T06:27:04;8.40;;;7.70;;
735;SDS011;352;48.626;9.238;2023-06-14T06:29:33;8.70;;;7.93;;
735;SDS011;352;48.626;9.238;2023-06-14T06:31:59;8.80;;;8.00;;
735;SDS011;352;48.626;9.238;2023-06-14T06:34:28;8.17;;;7.43;;
735;SDS011;352;48.626;9.238;2023-06-14T06:36:54;10.97;;;8.13;;
735;SDS011;352;48.626;9.238;2023-06-14T06:39:21;7.90;;;7.30;;
735;SDS011;352;48.626;9.238;2023-06-14T06:41:48;7.90;;;7.17;;
735;SDS011;352;48.626;9.238;2023-06-14T06:44:14;7.90;;;7.20;;
735;SDS011;352;48.626;9.238;2023-06-14T06:46:41;8.90;;;8.10;;
735;SDS011;352;48.626;9.238;2023-06-14T06:49:09;7.60;;;7.00;;
735;SDS011;352;48.626;9.238;2023-06-14T06:51:40;8.20;;;7.50;;
735;SDS011;352;48.626;9.238;2023-06-14T06:54:08;8.13;;;7.50;;
735;SDS011;352;48.626;9.238;2023-06-14T06:56:35;8.90;;;8.00;;
735;SDS011;352;48.626;9.238;2023-06-14T06:59:02;9.93;;;7.90;;
735;SDS011;352;48.626;9.238;2023-06-14T07:01:28;8.03;;;7.27;;
735;SDS011;352;48.626;9.238;2023-06-14T07:03:55;8.00;;;7.20;;
735;SDS011;352;48.626;9.238;2023-06-14T07:06:22;8.70;;;7.80;;
735;SDS011;352;48.626;9.238;2023-06-14T07:08:53;7.90;;;7.10;;
735;SDS011;352;48.626;9.238;2023-06-14T07:11:20;10.00;;;7.60;;
735;SDS011;352;48.626;9.238;2023-06-14T07:13:46;9.63;;;7.87;;
735;SDS011;352;48.626;9.238;2023-06-14T07:16:13;9.53;;;7.03;;
735;SDS011;352;48.626;9.238;2023-06-14T07:18:40;7.10;;;6.50;;
735;SDS011;352;48.626;9.238;2023-06-14T07:21:07;7.70;;;7.00;;
735;SDS011;352;48.626;9.238;2023-06-14T07:23:33;10.20;;;7.70;;
735;SDS011;352;48.626;9.238;2023-06-14T07:26:01;9.90;;;7.50;;
735;SDS011;352;48.626;9.238;2023-06-14T07:28:28;7.83;;;7.13;;
735;SDS011;352;48.626;9.238;2023-06-14T07:30:55;8.43;;;6.70;;
735;SDS011;352;48.626;9.238;2023-06-14T07:33:22;7.77;;;6.73;;
735;SDS011;352;48.626;9.238;2023-06-14T07:35:49;7.20;;;6.50;;
735;SDS011;352;48.626;9.238;2023-06-14T07:38:17;6.27;;;5.87;;
735;SDS011;352;48.626;9.238;2023-06-14T07:40:44;6.30;;;5.70;;
735;SDS011;352;48.626;9.238;2023-06-14T07:43:12;6.27;;;5.70;;
735;SDS011;352;48.626;9.238;2023-06-14T07:45:39;6.20;;;5.53;;
735;SDS011;352;48.626;9.238;2023-06-14T07:48:06;6.50;;;6.10;;
735;SDS011;352;48.626;9.238;2023-06-14T07:50:32;6.73;;;6.27;;
735;SDS011;352;48.626;9.238;2023-06-14T07:52:59;7.20;;;6.50;;
735;SDS011;352;48.626;9.238;2023-06-14T07:55:26;6.60;;;6.00;;
735;SDS011;352;48.626;9.238;2023-06-14T07:57:53;7.70;;;7.10;;
735;SDS011;352;48.626;9.238;2023-06-14T08:00:21;7.80;;;7.20;;
735;SDS011;352;48.626;9.238;2023-06-14T08:02:48;7.93;;;7.33;;
735;SDS011;352;48.626;9.238;2023-06-14T08:05:15;7.33;;;6.70;;
735;SDS011;352;48.626;9.238;2023-06-14T08:07:42;8.00;;;7.40;;
735;SDS011;352;48.626;9.238;2023-06-14T08:10:09;8.90;;;7.10;;
735;SDS011;352;48.626;9.238;2023-06-14T08:12:36;8.17;;;7.10;;
735;SDS011;352;48.626;9.238;2023-06-14T08:15:03;8.97;;;7.53;;
735;SDS011;352;48.626;9.238;2023-06-14T08:17:32;7.63;;;7.03;;
735;SDS011;352;48.626;9.238;2023-06-14T08:19:59;6.97;;;6.37;;
735;SDS011;352;48.626;9.238;2023-06-14T08:22:26;7.80;;;7.20;;
735;SDS011;352;48.626;9.238;2023-06-14T08:24:56;7.40;;;6.77;;
735;SDS011;352;48.626;9.238;2023-06-14T08:27:23;6.90;;;6.23;;
735;SDS011;352;48.626;9.238;2023-06-14T08:29:50;6.87;;;6.37;;
735;SDS011;352;48.626;9.238;2023-06-14T08:32:16;7.50;;;6.80;;
735;SDS011;352;48.626;9.238;2023-06-14T08:34:44;7.70;;;7.20;;
735;SDS011;352;48.626;9.238;2023-06-14T08:37:11;8.50;;;7.73;;
735;SDS011;352;48.626;9.238;2023-06-14T08:39:38;10.07;;;7.27;;
735;SDS011;352;48.626;9.238;2023-06-14T08:42:05;7.20;;;6.70;;
735;SDS011;352;48.626;9.238;2023-06-14T08:44:35;6.90;;;6.40;;
735;SDS011;352;48.626;9.238;2023-06-14T08:47:02;7.83;;;6.97;;
735;SDS011;352;48.626;9.238;2023-06-14T08:49:31;8.00;;;7.17;;
735;SDS011;352;48.626;9.238;2023-06-14T08:52:00;8.90;;;7.40;;
735;SDS011;352;48.626;9.238;2023-06-14T08:54:27;7.90;;;7.20;;
735;SDS011;352;48.626;9.238;2023-06-14T08:56:56;8.00;;;7.20;;
735;SDS011;352;48.626;9.238;2023-06-14T08:59:23;7.70;;;6.87;;
735;SDS011;352;48.626;9.238;2023-06-14T09:01:51;7.60;;;7.10;;
735;SDS011;352;48.626;9.238;2023-06-14T09:04:19;7.50;;;6.90;;
735;SDS011;352;48.626;9.238;2023-06-14T09:06:46;6.70;;;6.20;;
735;SDS011;352;48.626;9.238;2023-06-14T09:09:19;7.10;;;6.60;;
735;SDS011;352;48.626;9.238;2023-06-14T09:11:46;8.17;;;7.00;;
735;SDS011;352;48.626;9.238;2023-06-14T09:14:13;6.70;;;6.20;;
735;SDS011;352;48.626;9.238;2023-06-14T09:16:39;7.60;;;6.83;;
735;SDS011;352;48.626;9.238;2023-06-14T09:19:06;7.67;;;7.07;;
735;SDS011;352;48.626;9.238;2023-06-14T09:21:33;7.43;;;6.93;;
735;SDS011;352;48.626;9.238;2023-06-14T09:24:01;7.63;;;6.97;;
735;SDS011;352;48.626;9.238;2023-06-14T09:26:31;6.47;;;6.03;;
735;SDS011;352;48.626;9.238;2023-06-14T09:28:57;7.47;;;6.73;;
735;SDS011;352;48.626;9.238;2023-06-14T09:31:25;6.77;;;6.30;;
735;SDS011;352;48.626;9.238;2023-06-14T09:33:54;6.80;;;6.30;;
735;SDS011;352;48.626;9.238;2023-06-14T09:36:22;6.70;;;6.20;;
735;SDS011;352;48.626;9.238;2023-06-14T09:38:53;7.57;;;6.80;;
735;SDS011;352;48.626;9.238;2023-06-14T09:41:20;7.10;;;6.50;;
735;SDS011;352;48.626;9.238;2023-06-14T09:43:48;6.93;;;6.33;;
735;SDS011;352;48.626;9.238;2023-06-14T09:46:15;6.73;;;5.80;;
735;SDS011;352;48.626;9.238;2023-06-14T09:48:43;6.67;;;5.70;;
735;SDS011;352;48.626;9.238;2023-06-14T09:51:10;6.47;;;5.97;;
735;SDS011;352;48.626;9.238;2023-06-14T09:53:40;7.00;;;6.30;;
735;SDS011;352;48.626;9.238;2023-06-14T09:56:08;6.93;;;6.43;;
735;SDS011;352;48.626;9.238;2023-06-14T09:58:37;6.23;;;5.77;;
735;SDS011;352;48.626;9.238;2023-06-14T10:01:08;6.77;;;6.10;;
735;SDS011;352;48.626;9.238;2023-06-14T10:03:38;8.10;;;7.50;;
735;SDS011;352;48.626;9.238;2023-06-14T10:06:06;7.07;;;6.50;;
735;SDS011;352;48.626;9.238;2023-06-14T10:08:35;6.77;;;6.17;;
735;SDS011;352;48.626;9.238;2023-06-14T10:11:03;6.70;;;6.10;;
735;SDS011;352;48.626;9.238;2023-06-14T10:13:31;7.40;;;6.90;;
735;SDS011;352;48.626;9.238;2023-06-14T10:16:01;7.20;;;6.60;;
735;SDS011;352;48.626;9.238;2023-06-14T10:18:38;7.37;;;6.70;;
735;SDS011;352;48.626;9.238;2023-06-14T10:21:13;6.73;;;6.17;;
735;SDS011;352;48.626;9.238;2023-06-14T10:23:47;7.10;;;6.53;;
735;SDS011;352;48.626;9.238;2023-06-14T10:26:20;7.30;;;6.70;;
735;SDS011;352;48.626;9.238;2023-06-14T10:28:58;7.23;;;6.53;;
735;SDS011;352;48.626;9.238;2023-06-14T10:31:42;7.50;;;6.90;;
735;SDS011;352;48.626;9.238;2023-06-14T10:34:11;6.77;;;6.30;;
735;SDS011;352;48.626;9.238;2023-06-14T10:36:41;7.13;;;6.63;;
735;SDS011;352;48.626;9.238;2023-06-14T10:39:10;7.43;;;6.93;;
735;SDS011;352;48.626;9.238;2023-06-14T10:41:41;7.37;;;6.97;;
735;SDS011;352;48.626;9.238;2023-06-14T10:47:09;7.50;;;6.80;;
735;SDS011;352;48.626;9.238;2023-06-14T10:49:40;7.20;;;6.60;;
735;SDS011;352;48.626;9.238;2023-06-14T10:52:09;7.13;;;6.63;;
735;SDS011;352;48.626;9.238;2023-06-14T10:54:54;6.90;;;6.43;;
735;SDS011;352;48.626;9.238;2023-06-14T10:57:34;13.30;;;7.60;;
735;SDS011;352;48.626;9.238;2023-06-14T11:00:01;7.10;;;6.60;;
735;SDS011;352;48.626;9.238;2023-06-14T11:05:42;7.03;;;6.53;;
735;SDS011;352;48.626;9.238;2023-06-14T11:08:18;6.67;;;6.07;;
735;SDS011;352;48.626;9.238;2023-06-14T11:11:09;7.43;;;6.83;;
735;SDS011;352;48.626;9.238;2023-06-14T11:13:37;6.77;;;6.37;;
735;SDS011;352;48.626;9.238;2023-06-14T11:16:10;7.43;;;6.87;;
735;SDS011;352;48.626;9.238;2023-06-14T11:18:37;6.77;;;6.37;;
735;SDS011;352;48.626;9.238;2023-06-14T11:21:05;7.27;;;6.70;;
735;SDS011;352;48.626;9.238;2023-06-14T11:23:33;6.87;;;6.37;;
735;SDS011;352;48.626;9.238;2023-06-14T11:26:00;8.40;;;6.63;;
735;SDS011;352;48.626;9.238;2023-06-14T11:28:35;7.60;;;7.10;;
735;SDS011;352;48.626;9.238;2023-06-14T11:31:03;7.13;;;6.63;;
735;SDS011;352;48.626;9.238;2023-06-14T11:33:30;7.40;;;6.80;;
735;SDS011;352;48.626;9.238;2023-06-14T11:35:57;8.30;;;7.70;;
735;SDS011;352;48.626;9.238;2023-06-14T11:38:25;8.10;;;7.40;;
735;SDS011;352;48.626;9.238;2023-06-14T11:40:52;8.87;;;6.53;;
735;SDS011;352;48.626;9.238;2023-06-14T11:43:19;7.00;;;6.60;;
735;SDS011;352;48.626;9.238;2023-06-14T11:45:47;8.13;;;7.40;;
735;SDS011;352;48.626;9.238;2023-06-14T11:48:14;7.27;;;6.67;;
735;SDS011;352;48.626;9.238;2023-06-14T11:50:41;7.30;;;6.80;;
735;SDS011;352;48.626;9.238;2023-06-14T11:53:08;7.30;;;6.60;;
735;SDS011;352;48.626;9.238;2023-06-14T11:55:37;7.37;;;6.87;;
735;SDS011;352;48.626;9.238;2023-06-14T11:58:05;7.17;;;6.63;;
735;SDS011;352;48.626;9.238;2023-06-14T12:00:35;7.00;;;6.40;;
735;SDS011;352;48.626;9.238;2023-06-14T12:03:02;7.57;;;7.07;;
735;SDS011;352;48.626;9.238;2023-06-14T12:05:29;6.87;;;6.37;;
735;SDS011;352;48.626;9.238;2023-06-14T12:07:57;6.63;;;5.73;;
735;SDS011;352;48.626;9.238;2023-06-14T12:10:25;7.03;;;6.53;;
735;SDS011;352;48.626;9.238;2023-06-14T12:12:56;7.07;;;6.23;;
735;SDS011;352;48.626;9.238;2023-06-14T12:15:23;6.13;;;5.73;;
735;SDS011;352;48.626;9.238;2023-06-14T12:17:50;6.90;;;6.40;;
735;SDS011;352;48.626;9.238;2023-06-14T12:20:17;6.40;;;5.90;;
735;SDS011;352;48.626;9.238;2023-06-14T12:22:47;6.97;;;6.47;;
735;SDS011;352;48.626;9.238;2023-06-14T12:25:23;6.57;;;6.17;;
735;SDS011;352;48.626;9.238;2023-06-14T12:27:54;6.77;;;6.03;;
735;SDS011;352;48.626;9.238;2023-06-14T12:30:21;8.87;;;6.67;;
735;SDS011;352;48.626;9.238;2023-06-14T12:32:48;6.47;;;5.97;;
735;SDS011;352;48.626;9.238;2023-06-14T12:35:16;6.53;;;5.93;;
735;SDS011;352;48.626;9.238;2023-06-14T12:37:43;6.63;;;6.03;;
735;SDS011;352;48.626;9.238;2023-06-14T12:40:11;9.80;;;6.23;;
735;SDS011;352;48.626;9.238;2023-06-14T12:42:38;6.47;;;6.07;;
735;SDS011;352;48.626;9.238;2023-06-14T12:45:07;6.73;;;6.03;;
735;SDS011;352;48.626;9.238;2023-06-14T12:47:34;6.20;;;5.57;;
735;SDS011;352;48.626;9.238;2023-06-14T12:50:01;6.47;;;5.87;;
735;SDS011;352;48.626;9.238;2023-06-14T12:52:28;6.07;;;5.57;;
735;SDS011;352;48.626;9.238;2023-06-14T12:54:55;7.00;;;6.40;;
735;SDS011;352;48.626;9.238;2023-06-14T12:57:22;6.63;;;5.93;;
735;SDS011;352;48.626;9.238;2023-06-14T12:59:49;7.43;;;6.83;;
735;SDS011;352;48.626;9.238;2023-06-14T13:02:17;6.83;;;6.33;;
735;SDS011;352;48.626;9.238;2023-06-14T13:04:47;6.67;;;6.13;;
735;SDS011;352;48.626;9.238;2023-06-14T13:07:14;7.00;;;6.50;;
735;SDS011;352;48.626;9.238;2023-06-14T13:09:41;10.47;;;6.60;;
735;SDS011;352;48.626;9.238;2023-06-14T13:12:08;7.17;;;6.47;;
735;SDS011;352;48.626;9.238;2023-06-14T13:14:37;7.40;;;6.80;;
735;SDS011;352;48.626;9.238;2023-06-14T13:17:05;9.20;;;6.60;;
735;SDS011;352;48.626;9.238;2023-06-14T13:19:34;7.27;;;6.67;;
735;SDS011;352;48.626;9.238;2023-06-14T13:22:01;7.07;;;6.50;;
735;SDS011;352;48.626;9.238;2023-06-14T13:24:28;7.03;;;6.53;;
735;SDS011;352;48.626;9.238;2023-06-14T13:26:55;6.60;;;6.20;;
735;SDS011;352;48.626;9.238;2023-06-14T13:29:22;6.67;;;6.27;;
735;SDS011;352;48.626;9.238;2023-06-14T13:31:49;7.13;;;6.73;;
735;SDS011;352;48.626;9.238;2023-06-14T13:34:16;6.60;;;6.20;;
735;SDS011;352;48.626;9.238;2023-06-14T13:36:44;6.57;;;6.13;;
735;SDS011;352;48.626;9.238;2023-06-14T13:39:12;6.80;;;6.30;;
735;SDS011;352;48.626;9.238;2023-06-14T13:41:39;6.43;;;5.90;;
735;SDS011;352;48.626;9.238;2023-06-14T13:44:05;6.87;;;6.30;;
735;SDS011;352;48.626;9.238;2023-06-14T13:46:32;7.30;;;6.70;;
735;SDS011;352;48.626;9.238;2023-06-14T13:48:59;6.60;;;6.00;;
735;SDS011;352;48.626;9.238;2023-06-14T13:51:27;7.20;;;6.10;;
735;SDS011;352;48.626;9.238;2023-06-14T13:53:55;7.90;;;6.80;;
735;SDS011;352;48.626;9.238;2023-06-14T13:56:22;6.93;;;6.43;;
735;SDS011;352;48.626;9.238;2023-06-14T13:58:49;7.10;;;6.50;;
735;SDS011;352;48.626;9.238;2023-06-14T14:01:16;6.53;;;5.93;;
735;SDS011;352;48.626;9.238;2023-06-14T14:03:44;6.47;;;6.07;;
735;SDS011;352;48.626;9.238;2023-06-14T14:06:11;7.33;;;6.60;;
735;SDS011;352;48.626;9.238;2023-06-14T14:08:38;6.80;;;6.30;;
735;SDS011;352;48.626;9.238;2023-06-14T14:11:06;7.40;;;6.70;;
735;SDS011;352;48.626;9.238;2023-06-14T14:13:33;7.03;;;6.43;;
735;SDS011;352;48.626;9.238;2023-06-14T14:16:01;6.87;;;6.37;;
735;SDS011;352;48.626;9.238;2023-06-14T14:18:28;6.73;;;5.93;;
735;SDS011;352;48.626;9.238;2023-06-14T14:20:55;8.20;;;6.90;;
735;SDS011;352;48.626;9.238;2023-06-14T14:23:22;6.63;;;6.10;;
735;SDS011;352;48.626;9.238;2023-06-14T14:25:50;6.77;;;6.27;;
735;SDS011;352;48.626;9.238;2023-06-14T14:28:19;7.50;;;6.20;;
735;SDS011;352;48.626;9.238;2023-06-14T14:30:45;6.10;;;5.70;;
735;SDS011;352;48.626;9.238;2023-06-14T14:33:12;7.17;;;6.57;;
735;SDS011;352;48.626;9.238;2023-06-14T14:35:40;8.37;;;6.57;;
735;SDS011;352;48.626;9.238;2023-06-14T14:38:08;8.87;;;5.90;;
735;SDS011;352;48.626;9.238;2023-06-14T14:40:35;6.83;;;6.23;;
735;SDS011;352;48.626;9.238;2023-06-14T14:43:01;6.63;;;6.03;;
735;SDS011;352;48.626;9.238;2023-06-14T14:45:29;7.07;;;6.57;;
735;SDS011;352;48.626;9.238;2023-06-14T14:47:56;7.17;;;6.57;;
735;SDS011;352;48.626;9.238;2023-06-14T14:50:24;6.40;;;5.90;;
735;SDS011;352;48.626;9.238;2023-06-14T14:52:51;7.33;;;6.00;;
735;SDS011;352;48.626;9.238;2023-06-14T14:55:18;7.87;;;5.97;;
735;SDS011;352;48.626;9.238;2023-06-14T14:57:45;6.20;;;5.80;;
735;SDS011;352;48.626;9.238;2023-06-14T15:00:13;6.57;;;5.97;;
735;SDS011;352;48.626;9.238;2023-06-14T15:02:41;6.73;;;6.23;;
735;SDS011;352;48.626;9.238;2023-06-14T15:05:08;7.30;;;6.50;;
735;SDS011;352;48.626;9.238;2023-06-14T15:07:35;6.83;;;6.20;;
735;SDS011;352;48.626;9.238;2023-06-14T15:10:01;6.50;;;5.87;;
735;SDS011;352;48.626;9.238;2023-06-14T15:12:29;7.83;;;6.10;;
735;SDS011;352;48.626;9.238;2023-06-14T15:14:56;6.40;;;5.80;;
735;SDS011;352;48.626;9.238;2023-06-14T15:17:24;6.90;;;6.30;;
735;SDS011;352;48.626;9.238;2023-06-14T15:19:53;7.17;;;6.67;;
735;SDS011;352;48.626;9.238;2023-06-14T15:22:19;6.47;;;5.97;;
735;SDS011;352;48.626;9.238;2023-06-14T15:24:47;6.47;;;5.90;;
735;SDS011;352;48.626;9.238;2023-06-14T15:27:13;8.07;;;6.37;;
735;SDS011;352;48.626;9.238;2023-06-14T15:29:41;9.20;;;8.30;;
735;SDS011;352;48.626;9.238;2023-06-14T15:32:09;9.23;;;8.37;;
735;SDS011;352;48.626;9.238;2023-06-14T15:34:36;6.17;;;5.77;;
735;SDS011;352;48.626;9.238;2023-06-14T15:37:05;6.90;;;6.33;;
735;SDS011;352;48.626;9.238;2023-06-14T15:39:32;6.40;;;5.80;;
735;SDS011;352;48.626;9.238;2023-06-14T15:41:59;6.97;;;6.43;;
735;SDS011;352;48.626;9.238;2023-06-14T15:44:26;6.97;;;6.47;;
735;SDS011;352;48.626;9.238;2023-06-14T15:46:53;6.83;;;6.23;;
735;SDS011;352;48.626;9.238;2023-06-14T15:49:19;6.77;;;5.93;;
735;SDS011;352;48.626;9.238;2023-06-14T15:51:46;10.37;;;6.50;;
735;SDS011;352;48.626;9.238;2023-06-14T15:54:14;5.97;;;5.57;;